createdAt,value
2018-12-21T00:00:22.269Z,2.20
2018-12-21T00:02:50.680Z,2.87
2018-12-21T00:05:19.059Z,2.13
2018-12-21T00:07:47.439Z,1.97
2018-12-21T00:10:15.839Z,1.50
2018-12-21T00:12:44.260Z,2.57
2018-12-21T00:15:12.631Z,1.73
2018-12-21T00:17:41.229Z,1.73
2018-12-21T00:20:10.581Z,1.97
2018-12-21T00:22:39.078Z,2.43
2018-12-21T00:25:07.505Z,2.67
2018-12-21T00:27:35.888Z,1.23
2018-12-21T00:30:05.125Z,1.60
2018-12-21T00:32:38.759Z,1.87
2018-12-21T00:35:12.479Z,1.80
2018-12-21T00:37:46.108Z,1.90
2018-12-21T00:40:19.871Z,2.27
2018-12-21T00:42:57.414Z,2.00
2018-12-21T00:45:29.951Z,1.90
2018-12-21T00:47:58.582Z,1.60
2018-12-21T00:50:26.987Z,1.90
2018-12-21T00:52:55.364Z,1.90
2018-12-21T00:55:23.885Z,2.13
2018-12-21T00:57:52.463Z,1.90
2018-12-21T01:00:25.420Z,2.10
2018-12-21T01:02:53.850Z,1.80
2018-12-21T01:05:22.582Z,2.03
2018-12-21T01:07:51.079Z,2.37
2018-12-21T01:10:19.633Z,1.83
2018-12-21T01:12:48.003Z,1.90
2018-12-21T01:15:16.396Z,1.90
2018-12-21T01:17:44.815Z,2.10
2018-12-21T01:20:13.497Z,1.57
2018-12-21T01:22:42.296Z,1.60
2018-12-21T01:25:10.785Z,1.70
2018-12-21T01:27:39.279Z,1.63
2018-12-21T01:30:08.375Z,1.47
2018-12-21T01:32:36.753Z,1.80
2018-12-21T01:35:05.614Z,1.80
2018-12-21T01:37:34.095Z,1.97
2018-12-21T01:40:02.513Z,2.27
2018-12-21T01:42:30.891Z,1.87
2018-12-21T01:44:59.311Z,2.07
2018-12-21T01:47:27.737Z,2.27
2018-12-21T01:49:56.163Z,1.87
2018-12-21T01:52:24.571Z,1.90
2018-12-21T01:54:52.976Z,2.27
2018-12-21T01:57:21.347Z,1.90
2018-12-21T01:59:49.783Z,1.50
2018-12-21T02:02:18.371Z,1.77
2018-12-21T02:04:46.756Z,1.33
2018-12-21T02:07:15.126Z,2.10
2018-12-21T02:09:43.588Z,2.10
2018-12-21T02:12:11.966Z,2.30
2018-12-21T02:14:40.398Z,1.83
2018-12-21T02:17:08.841Z,1.63
2018-12-21T02:19:37.282Z,2.27
2018-12-21T02:22:05.674Z,1.67
2018-12-21T02:24:34.076Z,1.70
2018-12-21T02:27:02.604Z,1.83
2018-12-21T02:29:31.046Z,1.70
2018-12-21T02:31:59.532Z,1.80
2018-12-21T02:34:27.936Z,1.53
2018-12-21T02:36:56.320Z,1.53
2018-12-21T02:39:24.707Z,1.37
2018-12-21T02:41:53.127Z,1.70
2018-12-21T02:44:21.642Z,1.40
2018-12-21T02:46:50.011Z,1.80
2018-12-21T02:49:18.407Z,1.13
2018-12-21T02:51:46.829Z,1.70
2018-12-21T02:54:15.367Z,1.70
2018-12-21T02:56:43.755Z,1.90
2018-12-21T02:59:12.121Z,1.50
2018-12-21T03:01:40.694Z,1.63
2018-12-21T03:04:09.049Z,1.33
2018-12-21T03:06:37.458Z,1.90
2018-12-21T03:09:09.958Z,1.90
2018-12-21T03:11:38.586Z,1.53
2018-12-21T03:14:07.083Z,1.43
2018-12-21T03:16:35.795Z,1.90
2018-12-21T03:19:04.300Z,1.57
2018-12-21T03:21:32.715Z,1.57
2018-12-21T03:24:01.086Z,1.80
2018-12-21T03:26:29.550Z,1.97
2018-12-21T03:28:57.911Z,1.80
2018-12-21T03:31:26.356Z,1.87
2018-12-21T03:33:54.818Z,1.67
2018-12-21T03:36:23.285Z,1.73
2018-12-21T03:38:51.687Z,1.77
2018-12-21T03:41:20.100Z,2.47
2018-12-21T03:43:48.497Z,2.00
2018-12-21T03:46:16.980Z,2.40
2018-12-21T03:48:45.340Z,2.40
2018-12-21T03:51:13.801Z,2.73
2018-12-21T03:53:42.197Z,2.17
2018-12-21T03:56:10.606Z,2.30
2018-12-21T03:58:39.010Z,2.43
2018-12-21T04:01:07.431Z,2.40
2018-12-21T04:03:35.824Z,1.57
2018-12-21T04:06:04.232Z,1.70
2018-12-21T04:08:32.642Z,2.03
2018-12-21T04:11:01.215Z,1.20
2018-12-21T04:13:29.640Z,1.00
2018-12-21T04:15:58.045Z,1.13
2018-12-21T04:18:26.443Z,1.00
2018-12-21T04:20:55.293Z,1.23
2018-12-21T04:23:23.692Z,1.03
2018-12-21T04:25:52.425Z,0.60
2018-12-21T04:28:21.065Z,0.67
2018-12-21T04:30:49.483Z,0.67
2018-12-21T04:33:17.906Z,0.97
2018-12-21T04:35:46.333Z,0.77
2018-12-21T04:38:14.760Z,1.40
2018-12-21T04:40:43.277Z,1.40
2018-12-21T04:43:12.722Z,1.13
2018-12-21T04:45:41.163Z,0.90
2018-12-21T04:48:09.565Z,0.60
2018-12-21T04:50:37.964Z,1.07
2018-12-21T04:53:06.370Z,0.80
2018-12-21T04:55:34.811Z,1.10
2018-12-21T04:58:03.250Z,0.40
2018-12-21T05:00:31.646Z,0.30
2018-12-21T05:03:00.213Z,0.30
2018-12-21T05:05:28.614Z,1.27
2018-12-21T05:07:57.003Z,1.63
2018-12-21T05:10:25.384Z,1.53
2018-12-21T05:12:53.780Z,1.07
2018-12-21T05:15:22.242Z,1.67
2018-12-21T05:17:50.663Z,1.90
2018-12-21T05:20:19.076Z,1.20
2018-12-21T05:22:52.176Z,1.53
2018-12-21T05:25:17.881Z,1.40
2018-12-21T05:27:46.391Z,1.30
2018-12-21T05:30:14.986Z,0.90
2018-12-21T05:32:43.399Z,1.37
2018-12-21T05:35:11.784Z,0.90
2018-12-21T05:37:40.205Z,1.47
2018-12-21T05:40:09.898Z,1.10
2018-12-21T05:42:38.427Z,1.10
2018-12-21T05:45:07.079Z,1.13
2018-12-21T05:47:35.475Z,0.67
2018-12-21T05:50:04.043Z,0.30
2018-12-21T05:52:32.433Z,0.43
2018-12-21T05:55:00.835Z,0.53
2018-12-21T05:57:29.256Z,0.80
2018-12-21T05:59:57.651Z,0.40
2018-12-21T06:02:26.065Z,0.93
2018-12-21T06:04:55.635Z,0.43
2018-12-21T06:07:24.091Z,0.23
2018-12-21T06:09:52.460Z,0.23
2018-12-21T06:12:20.954Z,0.50
2018-12-21T06:14:49.393Z,0.27
2018-12-21T06:17:17.811Z,0.20
2018-12-21T06:19:46.211Z,0.20
2018-12-21T06:22:14.735Z,0.50
2018-12-21T06:24:43.148Z,0.20
2018-12-21T06:27:11.547Z,0.10
2018-12-21T06:29:39.952Z,0.23
2018-12-21T06:32:08.343Z,0.20
2018-12-21T06:34:36.760Z,0.10
2018-12-21T06:37:05.159Z,0.30
2018-12-21T06:39:33.616Z,0.37
2018-12-21T06:42:02.089Z,0.50
2018-12-21T06:44:30.548Z,0.30
2018-12-21T06:46:58.956Z,0.20
2018-12-21T06:49:27.360Z,0.10
2018-12-21T06:51:55.794Z,0.20
2018-12-21T06:54:24.418Z,0.03
2018-12-21T06:56:53.106Z,0.30
2018-12-21T06:59:21.502Z,0.10
2018-12-21T07:01:49.892Z,0.10
2018-12-21T07:04:18.303Z,0.13
2018-12-21T07:06:46.695Z,0.30
2018-12-21T07:09:15.132Z,0.20
2018-12-21T07:11:43.524Z,0.50
2018-12-21T07:14:11.923Z,0.33
2018-12-21T07:16:40.349Z,0.40
2018-12-21T07:19:08.773Z,0.23
2018-12-21T07:21:37.186Z,0.20
2018-12-21T07:24:05.670Z,0.50
2018-12-21T07:26:34.164Z,0.47
2018-12-21T07:29:03.190Z,0.30
2018-12-21T07:31:31.615Z,0.40
2018-12-21T07:34:00.060Z,0.43
2018-12-21T07:36:28.803Z,0.20
2018-12-21T07:38:57.325Z,0.30
2018-12-21T07:41:26.376Z,0.47
2018-12-21T07:43:55.043Z,0.60
2018-12-21T07:46:23.900Z,0.77
2018-12-21T07:48:52.494Z,1.47
2018-12-21T07:51:21.299Z,1.70
2018-12-21T07:53:50.911Z,1.80
2018-12-21T07:56:19.307Z,1.57
2018-12-21T07:58:56.933Z,1.80
2018-12-21T08:01:18.932Z,1.40
2018-12-21T08:03:47.461Z,1.50
2018-12-21T08:06:15.980Z,1.70
2018-12-21T08:08:44.455Z,2.50
2018-12-21T08:11:12.877Z,2.13
2018-12-21T08:13:41.902Z,0.70
2018-12-21T08:16:10.338Z,0.30
2018-12-21T08:18:39.179Z,0.37
2018-12-21T08:21:07.651Z,0.27
2018-12-21T08:23:44.104Z,0.23
2018-12-21T08:26:06.949Z,0.80
2018-12-21T08:28:35.355Z,0.60
2018-12-21T08:31:03.951Z,1.37
2018-12-21T08:33:33.335Z,1.63
2018-12-21T08:36:02.443Z,1.90
2018-12-21T08:38:30.978Z,1.50
2018-12-21T08:40:59.563Z,1.27
2018-12-21T08:43:28.501Z,1.00
2018-12-21T08:45:57.641Z,0.67
2018-12-21T08:48:26.111Z,0.80
2018-12-21T08:50:54.608Z,0.40
2018-12-21T08:53:23.020Z,1.07
2018-12-21T08:55:51.435Z,0.70
2018-12-21T08:58:20.100Z,0.30
2018-12-21T09:00:48.667Z,0.40
2018-12-21T09:03:18.012Z,0.30
2018-12-21T09:05:46.516Z,0.40
2018-12-21T09:08:14.995Z,0.77
2018-12-21T09:10:43.407Z,0.10
2018-12-21T09:13:11.807Z,0.30
2018-12-21T09:15:40.258Z,0.30
2018-12-21T09:18:08.692Z,0.30
2018-12-21T09:20:37.099Z,0.10
2018-12-21T09:23:05.548Z,0.13
2018-12-21T09:25:33.991Z,0.00
2018-12-21T09:28:02.393Z,0.10
2018-12-21T09:30:30.797Z,0.10
2018-12-21T09:32:59.183Z,0.13
2018-12-21T09:35:27.594Z,0.10
2018-12-21T09:37:56.003Z,0.30
2018-12-21T09:40:24.438Z,0.57
2018-12-21T09:42:53.522Z,0.17
2018-12-21T09:45:22.064Z,0.77
2018-12-21T09:47:50.476Z,0.40
2018-12-21T09:50:18.865Z,0.17
2018-12-21T09:52:47.384Z,0.20
2018-12-21T09:55:15.759Z,0.30
2018-12-21T09:57:44.194Z,0.23
2018-12-21T10:00:12.878Z,0.20
2018-12-21T10:02:41.918Z,0.10
2018-12-21T10:05:14.535Z,0.50
2018-12-21T10:07:43.240Z,0.10
2018-12-21T10:10:11.673Z,0.10
2018-12-21T10:12:40.137Z,0.27
2018-12-21T10:15:10.001Z,0.20
2018-12-21T10:17:38.465Z,0.20
2018-12-21T10:20:08.758Z,0.20
2018-12-21T10:22:37.220Z,0.10
2018-12-21T10:25:06.661Z,0.30
2018-12-21T10:27:35.144Z,0.27
2018-12-21T10:30:04.721Z,0.10
2018-12-21T10:32:33.116Z,0.13
2018-12-21T10:35:01.498Z,0.30
2018-12-21T10:37:29.896Z,0.10
2018-12-21T10:39:58.275Z,0.30
2018-12-21T10:42:26.943Z,0.20
2018-12-21T10:44:55.503Z,0.20
2018-12-21T10:47:23.919Z,0.20
2018-12-21T10:49:52.339Z,0.10
2018-12-21T10:52:20.911Z,0.10
2018-12-21T10:54:49.282Z,0.10
2018-12-21T10:57:17.691Z,0.30
2018-12-21T10:59:46.094Z,0.20
2018-12-21T11:02:14.496Z,0.20
2018-12-21T11:04:42.876Z,0.40
2018-12-21T11:07:11.273Z,0.40
2018-12-21T11:09:39.692Z,0.30
2018-12-21T11:12:08.105Z,0.20
2018-12-21T11:14:36.512Z,0.20
2018-12-21T11:17:04.944Z,0.20
2018-12-21T11:19:33.322Z,0.20
2018-12-21T11:22:01.751Z,0.33
2018-12-21T11:24:35.423Z,0.20
2018-12-21T11:27:00.693Z,0.30
2018-12-21T11:29:29.111Z,0.43
2018-12-21T11:31:57.498Z,0.30
2018-12-21T11:34:25.927Z,0.30
2018-12-21T11:36:54.328Z,0.37
2018-12-21T11:39:22.745Z,0.20
2018-12-21T11:41:51.151Z,0.30
2018-12-21T11:44:19.604Z,0.20
2018-12-21T11:46:47.983Z,0.20
2018-12-21T11:49:16.411Z,0.30
2018-12-21T11:51:44.793Z,0.30
2018-12-21T11:54:13.302Z,0.53
2018-12-21T11:56:41.750Z,0.57
2018-12-21T11:59:10.192Z,0.10
2018-12-21T12:01:38.699Z,0.10
2018-12-21T12:04:07.110Z,0.30
2018-12-21T12:06:37.556Z,0.10
2018-12-21T12:09:07.759Z,0.10
2018-12-21T12:11:36.165Z,0.20
2018-12-21T12:14:04.585Z,0.10
2018-12-21T12:16:33.012Z,0.33
2018-12-21T12:19:01.448Z,0.40
2018-12-21T12:21:30.603Z,0.23
2018-12-21T12:24:00.172Z,0.13
2018-12-21T12:26:34.279Z,0.10
2018-12-21T12:29:02.851Z,0.17
2018-12-21T12:31:31.395Z,0.30
2018-12-21T12:33:59.950Z,0.37
2018-12-21T12:36:28.308Z,0.60
2018-12-21T12:38:56.712Z,0.70
2018-12-21T12:41:25.138Z,0.10
2018-12-21T12:43:53.549Z,0.10
2018-12-21T12:46:21.966Z,0.30
2018-12-21T12:48:50.382Z,0.50
2018-12-21T12:51:18.781Z,0.10
2018-12-21T12:53:47.276Z,0.20
2018-12-21T12:56:15.786Z,0.27
2018-12-21T12:58:44.181Z,0.30
2018-12-21T13:01:12.732Z,0.10
2018-12-21T13:03:41.304Z,0.20
2018-12-21T13:06:09.747Z,0.17
2018-12-21T13:08:38.977Z,0.50
2018-12-21T13:11:07.548Z,0.33
2018-12-21T13:13:35.958Z,0.30
2018-12-21T13:16:04.479Z,0.20
2018-12-21T13:18:32.880Z,0.30
2018-12-21T13:21:01.279Z,0.33
2018-12-21T13:23:29.869Z,0.17
2018-12-21T13:25:58.970Z,0.20
2018-12-21T13:28:28.147Z,0.40
2018-12-21T13:30:56.804Z,0.20
2018-12-21T13:33:25.500Z,0.30
2018-12-21T13:35:54.631Z,0.60
2018-12-21T13:38:23.187Z,0.37
2018-12-21T13:40:51.770Z,0.47
2018-12-21T13:43:20.172Z,0.47
2018-12-21T13:45:48.588Z,0.40
2018-12-21T13:48:16.957Z,0.27
2018-12-21T13:50:45.508Z,0.30
2018-12-21T13:53:14.927Z,0.47
2018-12-21T13:55:43.337Z,0.30
2018-12-21T13:58:11.727Z,0.50
2018-12-21T14:00:40.128Z,0.67
2018-12-21T14:03:08.515Z,0.43
2018-12-21T14:05:36.919Z,0.40
2018-12-21T14:08:05.316Z,0.53
2018-12-21T14:10:33.852Z,0.50
2018-12-21T14:13:02.537Z,0.30
2018-12-21T14:15:31.277Z,0.50
2018-12-21T14:17:59.928Z,0.63
2018-12-21T14:20:28.331Z,0.50
2018-12-21T14:22:56.703Z,0.53
2018-12-21T14:25:29.090Z,0.50
2018-12-21T14:27:55.476Z,0.30
2018-12-21T14:30:23.870Z,0.63
2018-12-21T14:32:52.393Z,0.40
2018-12-21T14:35:20.776Z,0.60
2018-12-21T14:37:49.150Z,0.20
2018-12-21T14:40:17.675Z,0.50
2018-12-21T14:42:46.076Z,0.30
2018-12-21T14:45:14.497Z,0.47
2018-12-21T14:47:42.902Z,0.30
2018-12-21T14:50:11.905Z,0.83
2018-12-21T14:52:40.611Z,0.60
2018-12-21T14:55:09.444Z,0.37
2018-12-21T14:57:38.878Z,0.43
2018-12-21T15:00:11.585Z,0.77
2018-12-21T15:02:41.596Z,0.67
2018-12-21T15:05:10.610Z,1.00
2018-12-21T15:07:43.630Z,0.90
2018-12-21T15:10:12.119Z,0.73
2018-12-21T15:12:40.672Z,0.83
2018-12-21T15:15:09.512Z,1.60
2018-12-21T15:17:37.940Z,1.50
2018-12-21T15:20:09.722Z,1.60
2018-12-21T15:22:38.179Z,1.07
2018-12-21T15:25:07.715Z,0.90
2018-12-21T15:27:36.223Z,0.67
2018-12-21T15:30:06.595Z,1.63
2018-12-21T15:32:35.001Z,1.73
2018-12-21T15:35:03.623Z,0.93
2018-12-21T15:37:32.007Z,1.63
2018-12-21T15:40:00.419Z,1.50
2018-12-21T15:42:33.530Z,1.73
2018-12-21T15:45:02.039Z,1.20
2018-12-21T15:47:30.989Z,1.60
2018-12-21T15:49:59.578Z,1.70
2018-12-21T15:52:28.053Z,1.27
2018-12-21T15:54:56.429Z,1.97
2018-12-21T15:57:24.820Z,1.97
2018-12-21T16:00:03.860Z,1.40
2018-12-21T16:02:32.423Z,1.13
2018-12-21T16:05:00.992Z,1.70
2018-12-21T16:07:29.414Z,2.30
2018-12-21T16:09:57.788Z,1.40
2018-12-21T16:12:26.207Z,1.23
2018-12-21T16:14:54.575Z,1.23
2018-12-21T16:17:22.980Z,2.03
2018-12-21T16:19:51.347Z,1.20
2018-12-21T16:22:19.742Z,1.47
2018-12-21T16:24:48.128Z,1.80
2018-12-21T16:27:16.535Z,1.57
2018-12-21T16:29:50.220Z,2.10
2018-12-21T16:32:18.603Z,1.30
2018-12-21T16:34:47.041Z,1.50
2018-12-21T16:37:15.429Z,1.40
2018-12-21T16:39:43.855Z,2.37
2018-12-21T16:42:12.259Z,2.13
2018-12-21T16:44:40.655Z,2.40
2018-12-21T16:47:09.116Z,2.77
2018-12-21T16:49:37.525Z,2.13
2018-12-21T16:52:05.919Z,2.33
2018-12-21T16:54:34.315Z,2.60
2018-12-21T16:57:02.673Z,2.10
2018-12-21T16:59:31.079Z,2.63
2018-12-21T17:01:59.507Z,1.80
2018-12-21T17:04:27.932Z,2.20
2018-12-21T17:06:56.343Z,1.60
2018-12-21T17:09:24.855Z,2.83
2018-12-21T17:11:53.260Z,3.07
2018-12-21T17:14:21.685Z,3.13
2018-12-21T17:16:50.792Z,3.37
2018-12-21T17:19:20.965Z,3.03
2018-12-21T17:21:49.427Z,2.30
2018-12-21T17:24:17.821Z,2.57
2018-12-21T17:26:48.776Z,2.67
2018-12-21T17:29:17.182Z,3.00
2018-12-21T17:31:45.583Z,2.50
2018-12-21T17:34:14.904Z,2.70
2018-12-21T17:36:43.288Z,3.33
2018-12-21T17:39:11.685Z,2.83
2018-12-21T17:41:49.115Z,2.63
2018-12-21T17:44:35.732Z,2.70
2018-12-21T17:47:04.247Z,2.40
2018-12-21T17:49:32.907Z,3.47
2018-12-21T17:52:01.796Z,2.30
2018-12-21T17:54:30.437Z,2.70
2018-12-21T17:56:58.962Z,2.53
2018-12-21T17:59:27.471Z,3.00
2018-12-21T18:01:55.935Z,3.23
2018-12-21T18:04:28.015Z,3.20
2018-12-21T18:06:56.414Z,3.17
2018-12-21T18:09:27.332Z,3.17
2018-12-21T18:11:57.294Z,3.57
2018-12-21T18:14:27.106Z,3.40
2018-12-21T18:16:56.102Z,2.50
2018-12-21T18:19:24.534Z,2.83
2018-12-21T18:21:59.720Z,3.60
2018-12-21T18:24:29.427Z,3.00
2018-12-21T18:27:09.802Z,2.80
2018-12-21T18:29:40.232Z,1.93
2018-12-21T18:32:25.231Z,3.43
2018-12-21T18:34:53.636Z,2.60
2018-12-21T18:37:22.023Z,3.03
2018-12-21T18:39:50.464Z,2.90
2018-12-21T18:42:18.850Z,3.00
2018-12-21T18:45:03.907Z,3.97
2018-12-21T18:47:32.323Z,2.53
2018-12-21T18:50:00.757Z,3.37
2018-12-21T18:52:29.212Z,3.13
2018-12-21T18:54:57.685Z,2.73
2018-12-21T18:57:26.086Z,2.50
2018-12-21T18:59:54.506Z,3.30
2018-12-21T19:02:22.899Z,3.80
2018-12-21T19:04:51.419Z,1.93
2018-12-21T19:07:22.042Z,2.87
2018-12-21T19:09:50.338Z,2.60
2018-12-21T19:12:18.747Z,2.73
2018-12-21T19:14:47.391Z,2.83
2018-12-21T19:17:15.819Z,2.83
2018-12-21T19:19:44.223Z,3.53
2018-12-21T19:22:12.636Z,3.47
2018-12-21T19:24:40.995Z,3.53
2018-12-21T19:27:09.432Z,3.30
2018-12-21T19:29:37.855Z,3.90
2018-12-21T19:32:06.372Z,4.63
2018-12-21T19:34:34.833Z,3.47
2018-12-21T19:37:03.368Z,3.23
2018-12-21T19:39:31.879Z,3.37
2018-12-21T19:42:00.284Z,2.60
2018-12-21T19:44:28.736Z,3.30
2018-12-21T19:46:57.255Z,3.00
2018-12-21T19:49:25.671Z,3.23
2018-12-21T19:51:54.118Z,3.00
2018-12-21T19:54:23.294Z,2.97
2018-12-21T19:57:15.179Z,3.10
2018-12-21T19:59:43.544Z,2.60
2018-12-21T20:02:11.976Z,2.80
2018-12-21T20:04:41.173Z,3.13
2018-12-21T20:07:09.599Z,3.43
2018-12-21T20:09:37.976Z,3.50
2018-12-21T20:12:07.164Z,3.03
2018-12-21T20:14:45.008Z,3.00
2018-12-21T20:17:13.475Z,2.90
2018-12-21T20:19:41.860Z,3.63
2018-12-21T20:22:10.560Z,2.80
2018-12-21T20:24:40.240Z,3.60
2018-12-21T20:27:13.893Z,2.97
2018-12-21T20:32:35.573Z,2.73
2018-12-21T20:35:04.353Z,2.77
2018-12-21T20:37:32.789Z,3.17
2018-12-21T20:40:01.252Z,3.50
2018-12-21T20:42:35.293Z,3.47
2018-12-21T20:45:03.985Z,3.77
2018-12-21T20:47:32.462Z,3.57
2018-12-21T20:50:00.999Z,4.10
2018-12-21T20:52:29.418Z,3.77
2018-12-21T20:54:57.883Z,2.93
2018-12-21T20:57:28.332Z,3.53
2018-12-21T20:59:56.731Z,3.70
2018-12-21T21:02:25.215Z,3.77
2018-12-21T21:04:53.784Z,3.13
2018-12-21T21:07:22.160Z,2.73
2018-12-21T21:09:50.595Z,3.80
2018-12-21T21:12:32.591Z,3.63
2018-12-21T21:15:00.998Z,3.47
2018-12-21T21:17:29.437Z,4.37
2018-12-21T21:19:57.835Z,3.87
2018-12-21T21:22:26.230Z,3.93
2018-12-21T21:24:54.640Z,4.47
2018-12-21T21:27:30.169Z,5.13
2018-12-21T21:29:53.530Z,4.20
2018-12-21T21:32:21.912Z,3.37
2018-12-21T21:34:50.419Z,3.60
2018-12-21T21:37:19.884Z,4.43
2018-12-21T21:39:48.383Z,3.37
2018-12-21T21:42:16.880Z,3.63
2018-12-21T21:44:45.286Z,3.43
2018-12-21T21:47:13.904Z,3.43
2018-12-21T21:49:42.331Z,3.33
2018-12-21T21:52:10.733Z,4.63
2018-12-21T21:54:39.153Z,3.40
2018-12-21T21:57:07.623Z,3.33
2018-12-21T21:59:36.052Z,2.40
2018-12-21T22:02:04.556Z,3.60
2018-12-21T22:04:33.235Z,4.73
2018-12-21T22:07:02.667Z,4.13
2018-12-21T22:09:31.056Z,4.07
2018-12-21T22:12:00.204Z,2.97
2018-12-21T22:14:28.840Z,2.73
2018-12-21T22:16:57.283Z,4.50
2018-12-21T22:19:25.712Z,3.70
2018-12-21T22:21:54.304Z,3.50
2018-12-21T22:24:22.788Z,3.27
2018-12-21T22:26:51.196Z,4.60
2018-12-21T22:29:19.644Z,4.23
2018-12-21T22:31:48.074Z,3.77
2018-12-21T22:34:16.608Z,2.80
2018-12-21T22:36:45.092Z,3.97
2018-12-21T22:39:13.496Z,3.20
2018-12-21T22:41:41.927Z,4.40
2018-12-21T22:44:10.331Z,3.53
2018-12-21T22:46:38.775Z,3.27
2018-12-21T22:49:07.156Z,3.50
2018-12-21T22:51:35.555Z,3.87
2018-12-21T22:54:03.982Z,3.67
2018-12-21T22:56:32.441Z,4.30
2018-12-21T22:59:00.812Z,3.20
2018-12-21T23:01:29.404Z,3.63
2018-12-21T23:03:57.828Z,3.70
2018-12-21T23:06:26.244Z,3.50
2018-12-21T23:08:54.757Z,3.33
2018-12-21T23:11:23.196Z,3.30
2018-12-21T23:13:52.392Z,3.80
2018-12-21T23:16:21.751Z,3.33
2018-12-21T23:18:50.210Z,3.97
2018-12-21T23:21:18.617Z,3.80
2018-12-21T23:23:47.003Z,4.03
2018-12-21T23:26:15.398Z,4.13
2018-12-21T23:28:43.837Z,3.40
2018-12-21T23:31:12.242Z,4.13
2018-12-21T23:33:40.623Z,2.77
2018-12-21T23:36:09.076Z,3.77
2018-12-21T23:38:37.537Z,3.73
2018-12-21T23:41:05.983Z,3.80
2018-12-21T23:43:34.522Z,4.23
2018-12-21T23:46:03.024Z,4.27
2018-12-21T23:48:31.397Z,4.23
2018-12-21T23:50:59.948Z,4.47
2018-12-21T23:53:28.438Z,4.33
2018-12-21T23:55:57.052Z,4.60
2018-12-21T23:58:25.559Z,4.37
